Погода Эйвон-Лейкна неделю

Огайо, США

24 - 30 июня
  • 24июня
    Сегодня
    +18°
    +26°
    Ясно и безоблачно
    ВремяПогодаТемператураВлажностьДавлениеВетер, м/сВероятность осадков
    02:00Ясно и безоблачно+20°C90 %741 мм2.6 м/с11 %
    05:00Ясно и безоблачно+19°C88 %742 мм3.4 м/с3 %
    08:00Ясно и безоблачно+19°C90 %743 мм3.4 м/с1 %
    11:00Ясно и безоблачно+23°C80 %745 мм3.6 м/с2 %
    14:00Ясно и безоблачно+25°C69 %745 мм4.5 м/с4 %
    17:00Ясно и безоблачно+26°C64 %745 мм4.4 м/с1 %
    20:00Ясно и безоблачно+25°C50 %744 мм1.9 м/с2 %
    23:00Ясно и безоблачно+21°C69 %744 мм1.9 м/с2 %
  • 25июня
    Вторник
    +22°
    +32°
    Практически безоблачно
    ВремяПогодаТемператураВлажностьДавлениеВетер, м/сВероятность осадков
    02:00Ясно и безоблачно+19°C72 %744 мм2.4 м/с2 %
    05:00Ясно и безоблачно+19°C73 %743 мм3.5 м/с2 %
    08:00Облачно с прояснениями+21°C65 %744 мм4.3 м/с2 %
    11:00Облачно с прояснениями+27°C50 %743 мм6.1 м/с2 %
    14:00Практически безоблачно+29°C45 %740 мм8.3 м/с4 %
    17:00Небольшая облачность+32°C46 %739 мм8.3 м/с8 %
    20:00Облачно с прояснениями+30°C49 %738 мм6.8 м/с8 %
    23:00Ясно и безоблачно+25°C56 %739 мм3.7 м/с8 %
  • 26июня
    Среда
    +16°
    +28°
    Небольшая облачность
    ВремяПогодаТемператураВлажностьДавлениеВетер, м/сВероятность осадков
    02:00Небольшая облачность+25°C67 %739 мм4.2 м/с10 %
    05:00Облачно с прояснениями+24°C72 %739 мм4.5 м/с26 %
    08:00Облачно с прояснениями+23°C85 %739 мм3.4 м/с34 %
    11:00Облачно с прояснениями+26°C88 %740 мм4.0 м/с40 %
    14:00Небольшая облачность+25°C73 %740 мм4.7 м/с50 %
    17:00Пасмурно, сплошная облачность+25°C62 %740 мм4.9 м/с36 %
    20:00Практически безоблачно+24°C68 %740 мм5.8 м/с14 %
    23:00Ясно и безоблачно+20°C76 %741 мм5.4 м/с10 %
  • 27июня
    Четверг
    +14°
    +23°
    Ясно и безоблачно
    ВремяПогодаТемператураВлажностьДавлениеВетер, м/сВероятность осадков
    02:00Ясно и безоблачно+17°C75 %742 мм4.2 м/с3 %
    05:00Ясно и безоблачно+17°C73 %743 мм4.3 м/с4 %
    08:00Ясно и безоблачно+17°C70 %744 мм4.8 м/с7 %
    11:00Практически безоблачно+20°C65 %745 мм4.3 м/с8 %
    14:00Ясно и безоблачно+22°C62 %745 мм4.8 м/с2 %
    17:00Ясно и безоблачно+23°C59 %745 мм4.8 м/с2 %
    20:00Ясно и безоблачно+21°C58 %745 мм3.2 м/с2 %
    23:00Ясно и безоблачно+19°C63 %745 мм3.1 м/с2 %
Мы используем cookies
Соглашаюсь